sensor_id;sensor_type;location;lat;lon;timestamp;temperature;humidity
6792;DHT22;3433;48.730;9.108;2024-02-16T00:02:35;11.60;99.90
6792;DHT22;3433;48.730;9.108;2024-02-16T00:05:24;11.60;99.90
6792;DHT22;3433;48.730;9.108;2024-02-16T00:08:11;11.60;99.90
6792;DHT22;3433;48.730;9.108;2024-02-16T00:10:59;11.70;99.90
6792;DHT22;3433;48.730;9.108;2024-02-16T00:13:46;11.70;99.90
6792;DHT22;3433;48.730;9.108;2024-02-16T00:16:33;11.70;99.90
6792;DHT22;3433;48.730;9.108;2024-02-16T00:19:20;11.70;99.90
6792;DHT22;3433;48.730;9.108;2024-02-16T00:22:09;11.70;99.90
6792;DHT22;3433;48.730;9.108;2024-02-16T00:24:56;11.70;99.90
6792;DHT22;3433;48.730;9.108;2024-02-16T00:27:43;11.60;99.90
6792;DHT22;3433;48.730;9.108;2024-02-16T00:30:31;11.60;99.90
6792;DHT22;3433;48.730;9.108;2024-02-16T00:33:18;11.60;99.90
6792;DHT22;3433;48.730;9.108;2024-02-16T00:36:05;11.60;99.90
6792;DHT22;3433;48.730;9.108;2024-02-16T00:38:54;11.70;99.90
6792;DHT22;3433;48.730;9.108;2024-02-16T00:41:41;11.70;99.90
6792;DHT22;3433;48.730;9.108;2024-02-16T00:44:28;11.80;99.90
6792;DHT22;3433;48.730;9.108;2024-02-16T00:47:15;11.80;99.90
6792;DHT22;3433;48.730;9.108;2024-02-16T00:50:03;11.80;99.90
6792;DHT22;3433;48.730;9.108;2024-02-16T00:52:54;11.90;99.90
6792;DHT22;3433;48.730;9.108;2024-02-16T00:55:43;11.60;99.90
6792;DHT22;3433;48.730;9.108;2024-02-16T00:58:31;11.70;99.90
6792;DHT22;3433;48.730;9.108;2024-02-16T01:01:18;11.90;99.90
6792;DHT22;3433;48.730;9.108;2024-02-16T01:04:07;11.70;99.90
6792;DHT22;3433;48.730;9.108;2024-02-16T01:06:54;11.80;99.90
6792;DHT22;3433;48.730;9.108;2024-02-16T01:09:41;12.00;99.90
6792;DHT22;3433;48.730;9.108;2024-02-16T01:12:30;12.00;99.90
6792;DHT22;3433;48.730;9.108;2024-02-16T01:15:17;11.90;99.90
6792;DHT22;3433;48.730;9.108;2024-02-16T01:18:05;12.00;99.90
6792;DHT22;3433;48.730;9.108;2024-02-16T01:20:52;12.10;99.90
6792;DHT22;3433;48.730;9.108;2024-02-16T01:23:39;12.10;99.90
6792;DHT22;3433;48.730;9.108;2024-02-16T01:26:26;12.10;99.90
6792;DHT22;3433;48.730;9.108;2024-02-16T01:29:15;12.10;99.90
6792;DHT22;3433;48.730;9.108;2024-02-16T01:32:02;11.90;99.90
6792;DHT22;3433;48.730;9.108;2024-02-16T01:34:50;11.70;99.90
6792;DHT22;3433;48.730;9.108;2024-02-16T01:37:37;11.80;99.90
6792;DHT22;3433;48.730;9.108;2024-02-16T01:40:24;11.90;99.90
6792;DHT22;3433;48.730;9.108;2024-02-16T01:43:12;11.80;99.90
6792;DHT22;3433;48.730;9.108;2024-02-16T01:46:00;12.10;99.90
6792;DHT22;3433;48.730;9.108;2024-02-16T01:48:48;12.20;99.90
6792;DHT22;3433;48.730;9.108;2024-02-16T01:51:36;12.30;99.90
6792;DHT22;3433;48.730;9.108;2024-02-16T01:54:24;12.30;99.90
6792;DHT22;3433;48.730;9.108;2024-02-16T01:57:11;12.40;99.90
6792;DHT22;3433;48.730;9.108;2024-02-16T02:00:00;12.40;99.90
6792;DHT22;3433;48.730;9.108;2024-02-16T02:02:48;12.50;99.90
6792;DHT22;3433;48.730;9.108;2024-02-16T02:05:43;12.50;99.90
6792;DHT22;3433;48.730;9.108;2024-02-16T02:08:31;12.60;99.90
6792;DHT22;3433;48.730;9.108;2024-02-16T02:11:18;12.60;99.90
6792;DHT22;3433;48.730;9.108;2024-02-16T02:14:06;12.20;99.90
6792;DHT22;3433;48.730;9.108;2024-02-16T02:16:53;12.00;99.90
6792;DHT22;3433;48.730;9.108;2024-02-16T02:19:41;12.10;99.90
6792;DHT22;3433;48.730;9.108;2024-02-16T02:22:30;12.20;99.90
6792;DHT22;3433;48.730;9.108;2024-02-16T02:25:17;12.50;99.90
6792;DHT22;3433;48.730;9.108;2024-02-16T02:28:04;12.60;99.90
6792;DHT22;3433;48.730;9.108;2024-02-16T02:30:52;12.70;99.90
6792;DHT22;3433;48.730;9.108;2024-02-16T02:33:39;12.70;99.90
6792;DHT22;3433;48.730;9.108;2024-02-16T02:36:26;12.70;99.90
6792;DHT22;3433;48.730;9.108;2024-02-16T02:39:15;12.70;99.90
6792;DHT22;3433;48.730;9.108;2024-02-16T02:42:02;12.70;99.90
6792;DHT22;3433;48.730;9.108;2024-02-16T02:44:49;12.70;99.90
6792;DHT22;3433;48.730;9.108;2024-02-16T02:47:37;12.70;99.90
6792;DHT22;3433;48.730;9.108;2024-02-16T02:50:24;12.70;99.90
6792;DHT22;3433;48.730;9.108;2024-02-16T02:53:11;12.70;99.90
6792;DHT22;3433;48.730;9.108;2024-02-16T02:55:59;12.70;99.90
6792;DHT22;3433;48.730;9.108;2024-02-16T02:58:47;12.70;99.90
